Latest Weather Observations for Norah Head

IDN60901

Issued at 6:31 pm EDT Tuesday 28 February 2017 (issued every 10 minutes, with the page automatically refreshed every 10 minutes)

About weather observations | Map of Sydney area stations | Latest observations for Sydney area | Other Formats
Station Details ID: 061366 Name: NORAH HEAD AWS Lat: -33.28 Lon: 151.58 Height: 18.8 m
Data from the previous 72 hours. | See also: Recent months at Norah Head
Date/Time
EDT
Temp
°C
App
Temp
°C
Dew
Point
°C
Rel
Hum
%
Delta-T
°C
Wind Press
QNH
hPa
Press
MSL
hPa
Rain since
9am
mm
Dir  Spd
km/h
Gust
km/h
Spd
kts
Gust
kts
28/06:00pm 22.7 23.6 22.0 96 0.5 SSE 20 24 11 13 1020.2 1020.1 5.8
28/05:30pm 22.4 24.4 20.7 90 1.1 S 11 15 6 8 1020.5 1020.4 5.8
28/05:00pm 23.5 22.3 19.2 77 2.7 SSE 24 41 13 22 1020.6 1020.5 4.8
28/04:30pm 24.6 24.7 21.1 81 2.3 S 22 24 12 13 1020.5 1020.4 4.8
28/04:00pm 25.4 26.5 21.9 81 2.3 SSE 19 22 10 12 1020.6 1020.5 4.8
28/03:30pm 25.6 28.1 22.5 83 2.1 S 13 15 7 8 1020.9 1020.8 4.8
28/03:00pm 24.9 27.4 21.8 83 2.1 SSE 11 13 6 7 1020.8 1020.7 4.8
28/02:30pm 24.9 28.2 21.8 83 2.1 SE 7 9 4 5 1021.0 1020.9 4.8
28/02:00pm 24.3 26.7 20.8 81 2.3 E 9 13 5 7 1021.4 1021.3 4.8
28/01:30pm 24.1 25.7 21.4 85 1.8 E 15 19 8 10 1021.9 1021.8 4.8
28/01:00pm 24.4 26.2 21.9 86 1.7 ENE 15 17 8 9 1021.9 1021.8 4.8
28/12:30pm 23.2 24.5 21.6 91 1.1 ESE 17 19 9 10 1022.1 1022.0 4.6
28/12:00pm 22.7 25.7 22.7 100 0.0 ENE 11 15 6 8 1022.4 1022.3 4.6
28/11:30am 22.1 25.1 21.9 99 0.1 E 9 11 5 6 1022.3 1022.2 4.6
28/11:00am 21.0 20.7 20.3 96 0.4 NE 22 33 12 18 1022.7 1022.6 4.4
28/10:47am 21.9 23.0 21.2 96 0.5 ESE 17 32 9 17 1022.7 1022.6 4.4
28/10:30am 22.3 25.3 22.0 98 0.2 SE 9 13 5 7 1022.5 1022.4 4.4
28/10:00am 21.0 21.3 20.8 99 0.1 SSE 20 39 11 21 1022.5 1022.4 4.4
28/09:30am 21.0 24.1 21.0 100 0.0 SW 6 9 3 5 1022.5 1022.4 0.2
28/09:00am 20.4 23.0 20.4 100 0.0 NE 7 13 4 7 1022.4 1022.3 29.0
28/08:30am 20.8 23.8 20.8 100 0.0 W 6 9 3 5 1022.1 1022.0 23.8
28/08:00am 20.3 23.0 20.3 100 0.0 NW 6 7 3 4 1022.0 1021.9 23.8
28/07:30am 20.1 22.2 20.1 100 0.0 N 9 17 5 9 1021.8 1021.7 23.8
28/07:00am 20.2 22.7 20.2 100 0.0 NE 7 19 4 10 1021.6 1021.5 23.4
28/06:30am 20.1 20.6 20.1 100 0.0 NNE 17 43 9 23 1021.1 1021.0 22.8
28/06:00am 20.4 23.1 20.2 99 0.1 SSE 6 13 3 7 1020.9 1020.8 17.2
28/05:30am 20.4 23.0 20.4 100 0.0 W 7 11 4 6 1020.7 1020.6 16.6
28/05:00am 19.7 22.1 19.7 100 0.0 NW 6 9 3 5 1020.7 1020.6 15.6
28/04:30am 19.6 21.0 19.6 100 0.0 NNW 11 17 6 9 1020.7 1020.6 15.6
28/04:00am 19.6 21.4 19.6 100 0.0 NNW 9 11 5 6 1020.6 1020.5 15.6
28/03:30am 20.1 21.8 20.1 100 0.0 E 11 19 6 10 1020.7 1020.6 14.2
28/03:00am 20.4 21.0 20.2 99 0.1 ENE 17 30 9 16 1021.2 1021.1 10.0
28/02:41am 21.1 22.0 20.9 99 0.1 SE 17 33 9 18 1021.1 1021.0 4.4
28/02:30am 21.1 23.2 20.9 99 0.1 SSE 11 15 6 8 1021.0 1020.9 4.2
28/02:00am 20.8 22.7 20.5 98 0.2 SE 11 15 6 8 1021.3 1021.2 4.2
28/01:30am 20.9 22.1 20.6 98 0.2 SSE 15 20 8 11 1021.7 1021.6 4.2
28/01:00am 20.6 21.5 20.1 97 0.3 SSE 15 17 8 9 1022.0 1021.9 4.2
28/12:30am 21.5 22.4 20.1 92 0.9 ESE 15 19 8 10 1022.1 1022.0 2.8
28/12:00am 21.1 21.4 19.6 91 1.0 E 17 19 9 10 1022.1 1022.0 2.8
 
Date/Time
EDT
Temp
°C
App
Temp
°C
Dew
Point
°C
Rel
Hum
%
Delta-T
°C
Wind Press
QNH
hPa
Press
MSL
hPa
Rain since
9am
mm
Dir  Spd
km/h
Gust
km/h
Spd
kts
Gust
kts
27/11:30pm 21.1 19.8 19.9 93 0.8 E 26 35 14 19 1022.3 1022.2 2.8
27/11:00pm 21.8 20.4 20.4 92 0.9 SE 28 33 15 18 1022.4 1022.3 2.2
27/10:30pm 21.5 21.2 20.3 93 0.8 SE 22 26 12 14 1022.2 1022.1 2.2
27/10:00pm 21.2 20.9 20.4 95 0.5 SSE 22 26 12 14 1022.1 1022.0 2.2
27/09:30pm 20.5 21.0 19.2 92 0.8 S 15 20 8 11 1022.3 1022.2 2.0
27/09:00pm 20.5 19.7 19.2 92 0.8 SSE 22 33 12 18 1022.2 1022.1 1.6
27/08:30pm 21.8 20.6 20.1 90 1.1 S 26 32 14 17 1022.0 1021.9 1.0
27/08:00pm 21.9 20.0 20.2 90 1.1 S 30 33 16 18 1021.9 1021.8 1.0
27/07:30pm 21.7 19.8 20.2 91 1.0 S 30 37 16 20 1021.5 1021.4 1.0
27/07:00pm 21.9 19.5 20.0 89 1.2 S 32 33 17 18 1021.5 1021.4 1.0
27/06:30pm 21.6 19.9 19.9 90 1.1 S 28 37 15 20 1021.4 1021.3 1.0
27/06:00pm 22.6 20.0 19.9 85 1.7 S 33 43 18 23 1021.1 1021.0 1.0
27/05:30pm 22.7 20.4 20.2 86 1.6 S 32 37 17 20 1021.1 1021.0 1.0
27/05:00pm 21.9 21.1 20.0 89 1.2 S 24 28 13 15 1021.4 1021.3 1.0
27/04:30pm 21.2 19.6 19.1 88 1.3 SSW 26 37 14 20 1021.5 1021.4 0.8
27/04:00pm 24.1 23.4 20.2 79 2.5 S 24 28 13 15 1021.5 1021.4 0.0
27/03:30pm 24.1 23.2 19.8 77 2.8 S 24 28 13 15 1021.7 1021.6 0.0
27/03:00pm 24.0 23.4 19.7 77 2.8 SSW 22 26 12 14 1022.0 1021.9 0.0
27/02:30pm 23.9 23.2 19.4 76 2.9 SSW 22 24 12 13 1022.3 1022.2 0.0
27/02:00pm 24.4 23.6 19.2 73 3.3 S 22 24 12 13 1022.7 1022.6 0.0
27/01:30pm 24.5 23.8 19.6 74 3.2 S 22 26 12 14 1023.0 1022.9 0.0
27/01:00pm 24.3 23.6 19.4 74 3.1 S 22 26 12 14 1023.2 1023.1 0.0
27/12:30pm 23.7 22.2 18.6 73 3.2 S 24 28 13 15 1023.0 1022.9 0.0
27/12:00pm 24.4 23.7 20.3 78 2.7 S 24 26 13 14 1023.4 1023.3 0.0
27/11:30am 23.9 22.4 19.4 76 2.9 S 26 32 14 17 1023.4 1023.3 0.0
27/11:00am 23.4 22.5 19.8 80 2.3 SSE 24 28 13 15 1023.4 1023.3 0.0
27/10:30am 23.6 22.5 19.5 78 2.6 SSE 24 28 13 15 1023.6 1023.5 0.0
27/10:00am 23.7 23.3 20.2 81 2.3 SSE 22 24 12 13 1023.5 1023.4 0.0
27/09:30am 22.3 21.6 19.5 84 1.8 SSE 22 26 12 14 1023.5 1023.4 0.0
27/09:00am 22.4 21.7 19.6 84 1.8 SSE 22 24 12 13 1023.1 1023.0 7.2
27/08:30am 22.4 21.7 19.6 84 1.8 SSE 22 26 12 14 1022.9 1022.8 7.2
27/08:00am 22.2 22.0 19.7 86 1.6 SSE 20 24 11 13 1022.6 1022.5 7.2
27/07:30am 21.5 19.9 19.1 86 1.5 SSE 26 32 14 17 1022.1 1022.0 7.2
27/07:00am 20.9 19.7 19.2 90 1.1 SE 24 28 13 15 1021.7 1021.6 7.2
27/06:30am 20.9 18.9 19.2 90 1.1 SE 28 33 15 18 1021.4 1021.3 7.2
27/06:00am 20.9 19.4 19.4 91 0.9 SSE 26 33 14 18 1021.0 1020.9 7.2
27/05:30am 21.1 19.5 19.2 89 1.2 SE 26 32 14 17 1020.9 1020.8 7.2
27/05:00am 21.1 18.7 19.2 89 1.2 SE 30 35 16 19 1020.8 1020.7 7.2
27/04:30am 21.1 19.3 19.6 91 1.0 SE 28 32 15 17 1020.7 1020.6 7.2
27/04:00am 21.2 19.1 19.7 91 1.0 SE 30 33 16 18 1020.8 1020.7 7.2
27/03:30am 21.0 18.5 19.8 93 0.8 SE 32 37 17 20 1020.9 1020.8 7.2
27/03:00am 20.9 18.6 20.2 96 0.4 SE 32 35 17 19 1020.9 1020.8 7.2
27/02:30am 19.9 21.1 19.9 100 0.0 S 13 22 7 12 1021.1 1021.0 7.2
27/02:00am 19.5 20.9 19.5 100 0.0 SW 11 17 6 9 1021.4 1021.3 6.2
27/01:30am 19.9 22.4 19.9 100 0.0 WSW 6 13 3 7 1021.3 1021.2 6.2
27/01:00am 19.7 21.2 19.7 100 0.0 SW 11 17 6 9 1021.4 1021.3 5.8
27/12:30am 19.6 21.8 19.6 100 0.0 WSW 7 11 4 6 1021.8 1021.7 5.2
27/12:00am 19.8 21.0 19.8 100 0.0 WSW 13 19 7 10 1021.9 1021.8 4.2
 
Date/Time
EDT
Temp
°C
App
Temp
°C
Dew
Point
°C
Rel
Hum
%
Delta-T
°C
Wind Press
QNH
hPa
Press
MSL
hPa
Rain since
9am
mm
Dir  Spd
km/h
Gust
km/h
Spd
kts
Gust
kts
26/11:30pm 20.2 21.4 20.0 99 0.1 SW 13 20 7 11 1022.0 1021.9 4.2
26/11:00pm 20.1 19.4 19.6 97 0.3 S 22 28 12 15 1022.1 1022.0 4.2
26/10:30pm 20.3 19.1 19.3 94 0.6 S 24 37 13 20 1022.1 1022.0 4.2
26/10:00pm 20.6 17.8 19.4 93 0.8 S 33 39 18 21 1022.0 1021.9 3.6
26/09:30pm 20.6 19.4 19.3 92 0.8 SSW 24 32 13 17 1021.9 1021.8 3.4
26/09:00pm 20.3 19.4 19.1 93 0.8 SSW 22 32 12 17 1021.8 1021.7 3.4
26/08:30pm 20.3 18.1 19.5 95 0.5 SSW 30 37 16 20 1021.4 1021.3 3.4
26/08:00pm 20.0 16.8 18.5 91 0.9 SSW 33 43 18 23 1021.2 1021.1 3.4
26/07:30pm 20.1 17.1 18.6 91 0.9 S 32 44 17 24 1020.8 1020.7 3.4
26/07:00pm 20.3 17.2 18.4 89 1.2 S 32 43 17 23 1020.9 1020.8 3.2
26/06:30pm 21.0 18.6 19.1 89 1.2 S 30 39 16 21 1020.7 1020.6 3.2
26/06:00pm 22.1 19.5 17.9 77 2.6 S 28 33 15 18 1020.6 1020.5 3.2
26/05:30pm 21.9 20.0 17.7 77 2.6 S 24 32 13 17 1020.7 1020.6 3.2
26/05:00pm 22.6 19.4 17.3 72 3.3 S 30 35 16 19 1020.5 1020.4 3.2
26/04:30pm 22.6 19.5 17.5 73 3.2 S 30 35 16 19 1020.5 1020.4 3.2
26/04:00pm 22.6 19.3 17.9 75 2.9 S 32 39 17 21 1020.5 1020.4 3.2
26/03:30pm 22.9 21.1 18.7 77 2.7 SSW 26 32 14 17 1020.7 1020.6 3.2
26/03:00pm 23.1 21.4 18.2 74 3.1 SSW 24 28 13 15 1020.8 1020.7 3.2
26/02:30pm 23.1 21.4 18.2 74 3.1 SSW 24 28 13 15 1021.2 1021.1 3.2
26/02:00pm 23.1 21.5 18.4 75 2.9 SSW 24 30 13 16 1021.5 1021.4 3.2
26/01:30pm 23.1 21.5 18.4 75 3.0 SSW 24 28 13 15 1021.6 1021.5 3.2
26/01:00pm 23.3 23.3 19.7 80 2.3 SSW 19 24 10 13 1021.8 1021.7 3.2
26/12:30pm 22.9 21.2 18.2 75 2.9 SSW 24 30 13 16 1021.8 1021.7 3.0
26/12:00pm 22.7 20.8 18.5 77 2.6 S 26 30 14 16 1021.9 1021.8 3.0
26/11:30am 21.2 19.8 18.8 86 1.5 SSW 24 28 13 15 1022.0 1021.9 3.0
26/11:00am 20.7 21.3 19.4 92 0.8 SSW 15 24 8 13 1022.0 1021.9 3.0
26/10:30am 19.3 17.7 18.3 94 0.6 SSE 24 41 13 22 1022.2 1022.1 3.0
26/10:02am 20.4 17.4 17.8 85 1.6 SSE 30 54 16 29 1021.6 1021.5 0.0
26/10:01am 20.8 18.3 18.0 84 1.7 S 28 46 15 25 1021.7 1021.6 0.0
26/10:00am 20.9 18.7 17.9 83 1.9 S 26 37 14 20 1021.7 1021.6 0.0
26/09:30am 21.1 19.8 18.1 83 1.9 S 22 26 12 14 1021.5 1021.4 0.0
26/09:00am 20.9 18.6 17.7 82 2.0 S 26 30 14 16 1021.2 1021.1 17.0
26/08:30am 21.1 18.9 17.9 82 2.0 SSE 26 35 14 19 1020.8 1020.7 17.0
26/08:00am 21.0 18.3 18.4 85 1.6 S 30 32 16 17 1020.5 1020.4 17.0
26/07:30am 21.0 18.1 18.0 83 1.9 S 30 33 16 18 1020.2 1020.1 17.0
26/07:00am 20.9 17.6 17.9 83 1.9 S 32 37 17 20 1019.7 1019.6 17.0
26/06:30am 20.8 17.9 18.0 84 1.7 SSE 30 35 16 19 1019.4 1019.3 17.0
26/06:00am 20.9 17.6 18.3 85 1.6 SSE 33 39 18 21 1019.0 1018.9 17.0
26/05:30am 20.9 17.7 18.5 86 1.5 SSE 33 39 18 21 1018.6 1018.5 17.0
26/05:00am 20.9 18.8 19.0 89 1.2 SSE 28 32 15 17 1018.4 1018.3 17.0
26/04:30am 21.0 19.1 19.3 90 1.1 SE 28 32 15 17 1018.2 1018.1 17.0
26/04:00am 20.8 18.0 19.1 90 1.1 SE 32 37 17 20 1018.0 1017.9 17.0
26/03:30am 20.8 18.0 19.5 92 0.8 SE 33 39 18 21 1018.1 1018.0 17.0
26/03:17am 20.7 19.2 19.5 93 0.8 SE 26 35 14 19 1018.2 1018.1 17.0
26/03:00am 20.6 22.8 19.6 94 0.6 SSE 7 17 4 9 1018.6 1018.5 17.0
26/02:30am 20.3 21.8 19.0 92 0.8 WSW 9 13 5 7 1019.0 1018.9 17.0
26/02:00am 20.4 21.5 18.9 91 0.9 S 11 17 6 9 1019.1 1019.0 17.0
26/01:30am 21.1 22.9 18.7 86 1.5 SSW 7 19 4 10 1019.6 1019.5 14.8
26/01:00am 20.5 22.1 19.2 92 0.8 SSW 9 13 5 7 1019.7 1019.6 14.8
26/12:30am 20.6 21.9 19.4 93 0.8 S 11 13 6 7 1019.7 1019.6 14.8
26/12:00am 20.5 21.5 19.5 94 0.6 SSW 13 15 7 8 1019.6 1019.5 14.8
 
Date/Time
EDT
Temp
°C
App
Temp
°C
Dew
Point
°C
Rel
Hum
%
Delta-T
°C
Wind Press
QNH
hPa
Press
MSL
hPa
Rain since
9am
mm
Dir  Spd
km/h
Gust
km/h
Spd
kts
Gust
kts
25/11:30pm 20.9 21.2 19.6 92 0.8 S 17 20 9 11 1019.6 1019.5 14.8
25/11:00pm 20.8 21.1 19.6 93 0.8 SSE 17 20 9 11 1019.7 1019.6 14.8
25/10:30pm 20.8 21.7 19.3 91 0.9 SSW 13 17 7 9 1019.7 1019.6 14.8
25/10:00pm 20.2 20.5 19.5 96 0.4 SSW 17 22 9 12 1019.7 1019.6 14.8
25/09:30pm 20.1 19.7 19.4 96 0.4 SSW 20 24 11 13 1019.5 1019.4 14.8
25/09:00pm 19.9 19.5 19.4 97 0.3 SSW 20 28 11 15 1019.6 1019.5 14.8
25/08:30pm 20.0 19.8 19.3 96 0.4 SW 19 26 10 14 1019.6 1019.5 14.8
25/08:00pm 20.1 20.0 19.6 97 0.3 SSW 19 26 10 14 1019.4 1019.3 14.8
25/07:30pm 19.6 19.9 19.6 100 0.0 SW 17 24 9 13 1019.1 1019.0 14.8
25/07:00pm 19.9 19.0 19.9 100 0.0 S 24 30 13 16 1018.9 1018.8 14.8

Latest Capital City Observations: Canberra | Sydney | Melbourne | Brisbane | Adelaide | Perth | Hobart | Darwin

Other Formats:

Comma delimited format used in spreadsheet applications
http://www.bom.gov.au/fwo/IDN60901/IDN60901.95770.axf

JavaScript Object Notation format (JSON) in row-major order
http://www.bom.gov.au/fwo/IDN60901/IDN60901.95770.json